Time;durP1;ratioP1;P1;durP2;ratioP2;P2;SDS_P1;SDS_P2;PMS_P1;PMS_P2;Temp;Humidity;BMP_temperature;BMP_pressure;BME280_temperature;BME280_humidity;BME280_pressure;Samples;Min_cycle;Max_cycle;Signal;HPM_P1;HPM_P2
2022/01/24 00:00:46;;;;;;;7.20;6.50;;;;;;;;;;2058822;28;20174;-59
2022/01/24 00:01:49;;;;;;;6.22;5.60;;;;;;;;;;2063147;28;20181;-62
2022/01/24 00:02:49;;;;;;;5.97;5.15;;;;;;;;;;2066851;28;20747;-60
2022/01/24 00:03:56;;;;;;;5.82;5.22;;;;;;;;;;2068481;28;20236;-60
2022/01/24 00:04:56;;;;;;;5.60;5.10;;;;;;;;;;2065612;28;20158;-62
2022/01/24 00:05:56;;;;;;;5.53;4.95;;;;;;;;;;2065414;28;20239;-64
2022/01/24 00:06:57;;;;;;;6.13;5.53;;;;;;;;;;2065854;28;20197;-61
2022/01/24 00:07:57;;;;;;;6.57;5.53;;;;;;;;;;2058572;28;20602;-62
2022/01/24 00:08:58;;;;;;;8.20;6.65;;;;;;;;;;2058798;28;20213;-61
2022/01/24 00:10:02;;;;;;;6.60;5.95;;;;;;;;;;2057541;28;20661;-60
2022/01/24 00:11:07;;;;;;;7.22;6.53;;;;;;;;;;2065889;28;20178;-61
2022/01/24 00:12:24;;;;;;;6.95;6.18;;;;;;;;;;2067628;28;20682;-61
2022/01/24 00:14:55;;;;;;;7.55;5.25;;;;;;;;;;2062756;28;20269;-63
2022/01/24 00:16:12;;;;;;;5.82;5.28;;;;;;;;;;2065218;28;20159;-63
2022/01/24 00:17:28;;;;;;;6.05;5.43;;;;;;;;;;2068759;28;20564;-60
2022/01/24 00:26:41;;;;;;;5.93;5.32;;;;;;;;;;2059775;28;20166;-63
2022/01/24 00:26:45;;;;;;;6.63;5.97;;;;;;;;;;2068562;28;20656;-58
2022/01/24 00:27:46;;;;;;;6.45;5.45;;;;;;;;;;2057793;28;20817;-60
2022/01/24 00:28:46;;;;;;;6.07;5.47;;;;;;;;;;2061562;28;20177;-60
2022/01/24 00:29:46;;;;;;;6.28;5.75;;;;;;;;;;2065726;28;20170;-59
2022/01/24 00:30:47;;;;;;;6.75;6.10;;;;;;;;;;2066275;28;20200;-61
2022/01/24 00:31:47;;;;;;;7.22;6.20;;;;;;;;;;2073252;28;20208;-61
2022/01/24 00:32:48;;;;;;;6.88;6.18;;;;;;;;;;2063089;28;20178;-60
2022/01/24 00:33:48;;;;;;;6.75;5.80;;;;;;;;;;2073849;28;20161;-63
2022/01/24 00:34:48;;;;;;;6.88;6.10;;;;;;;;;;2067451;28;20688;-61
2022/01/24 00:35:50;;;;;;;7.63;6.15;;;;;;;;;;2065738;28;20192;-62
2022/01/24 00:36:51;;;;;;;6.70;6.00;;;;;;;;;;2064410;28;20227;-61
2022/01/24 00:37:52;;;;;;;7.03;6.22;;;;;;;;;;2073415;28;20273;-58
2022/01/24 00:38:52;;;;;;;6.50;5.90;;;;;;;;;;2065496;28;20209;-61
2022/01/24 00:39:52;;;;;;;6.75;5.88;;;;;;;;;;2072293;28;20188;-61
2022/01/24 00:40:53;;;;;;;7.55;6.22;;;;;;;;;;2064349;28;20178;-62
2022/01/24 00:42:57;;;;;;;7.00;5.95;;;;;;;;;;2064199;28;20169;-61
2022/01/24 00:45:30;;;;;;;6.60;5.88;;;;;;;;;;2063486;28;20238;-62
2022/01/24 00:46:36;;;;;;;6.45;5.82;;;;;;;;;;2062583;28;20174;-62
2022/01/24 00:54:02;;;;;;;6.97;6.22;;;;;;;;;;2065837;28;20253;-62
2022/01/24 00:55:03;;;;;;;5.75;5.25;;;;;;;;;;2069994;28;21328;-62
2022/01/24 00:56:04;;;;;;;5.78;5.28;;;;;;;;;;2068435;28;20224;-62
2022/01/24 00:57:04;;;;;;;7.78;6.25;;;;;;;;;;2067032;28;20220;-60
2022/01/24 00:58:05;;;;;;;6.68;5.93;;;;;;;;;;2068915;28;20273;-62
2022/01/24 00:59:05;;;;;;;5.88;5.38;;;;;;;;;;2062259;28;20213;-60
2022/01/24 01:00:05;;;;;;;6.25;5.65;;;;;;;;;;2065861;28;20177;-61
2022/01/24 01:01:06;;;;;;;7.85;6.07;;;;;;;;;;2059452;28;20166;-62
2022/01/24 01:02:06;;;;;;;6.43;5.80;;;;;;;;;;2063705;28;20264;-63
2022/01/24 01:03:07;;;;;;;6.18;5.57;;;;;;;;;;2065737;28;20177;-63
2022/01/24 01:04:07;;;;;;;6.22;5.57;;;;;;;;;;2064911;28;20605;-62
2022/01/24 01:05:21;;;;;;;6.75;5.85;;;;;;;;;;2067308;28;20165;-63
2022/01/24 01:06:21;;;;;;;6.53;5.93;;;;;;;;;;2068687;28;20208;-61
2022/01/24 01:18:05;;;;;;;5.20;4.70;;;;;;;;;;2064619;28;20178;-63
2022/01/24 01:18:13;;;;;;;7.75;5.85;;;;;;;;;;2066095;28;20646;-62
2022/01/24 01:19:13;;;;;;;5.97;5.47;;;;;;;;;;2065666;28;20641;-61
2022/01/24 01:20:18;;;;;;;5.90;5.40;;;;;;;;;;2068886;28;20177;-63
2022/01/24 01:21:18;;;;;;;5.72;5.22;;;;;;;;;;2060751;28;20726;-61
2022/01/24 01:22:19;;;;;;;6.82;5.97;;;;;;;;;;2063265;28;20204;-61
2022/01/24 01:23:19;;;;;;;6.20;5.60;;;;;;;;;;2067512;28;20173;-61
2022/01/24 01:24:20;;;;;;;6.13;5.53;;;;;;;;;;2068965;28;20669;-61
2022/01/24 01:25:21;;;;;;;6.43;5.83;;;;;;;;;;2068113;28;20173;-62
2022/01/24 01:26:28;;;;;;;5.90;5.32;;;;;;;;;;2068122;28;20189;-61
2022/01/24 01:27:39;;;;;;;6.07;5.53;;;;;;;;;;2071839;28;20171;-62
2022/01/24 01:28:45;;;;;;;6.70;6.05;;;;;;;;;;2062749;28;20182;-63
2022/01/24 01:30:58;;;;;;;6.47;5.70;;;;;;;;;;2066148;28;20169;-60
2022/01/24 01:32:14;;;;;;;6.77;6.17;;;;;;;;;;2059631;28;20174;-61
2022/01/24 01:33:25;;;;;;;6.38;5.78;;;;;;;;;;2066086;28;20169;-61
2022/01/24 01:37:23;;;;;;;6.70;6.10;;;;;;;;;;2066268;28;20590;-61
2022/01/24 01:52:40;;;;;;;6.72;5.93;;;;;;;;;;2061932;28;20225;-61
2022/01/24 01:54:06;;;;;;;6.47;5.93;;;;;;;;;;2072652;28;20157;-62
2022/01/24 01:55:15;;;;;;;5.97;5.43;;;;;;;;;;2070340;28;20231;-62
2022/01/24 01:56:16;;;;;;;7.25;6.55;;;;;;;;;;2058115;28;20183;-60
2022/01/24 01:57:20;;;;;;;6.40;5.80;;;;;;;;;;2060916;28;20273;-63
2022/01/24 01:58:21;;;;;;;6.97;6.28;;;;;;;;;;2066886;28;20205;-62
2022/01/24 01:59:22;;;;;;;6.82;6.22;;;;;;;;;;2067118;28;20206;-61
2022/01/24 02:00:22;;;;;;;6.43;5.82;;;;;;;;;;2062010;28;20178;-61
2022/01/24 02:01:22;;;;;;;5.60;5.10;;;;;;;;;;2065717;28;20675;-63
2022/01/24 02:02:22;;;;;;;6.82;6.13;;;;;;;;;;2062348;28;20177;-60
2022/01/24 02:03:23;;;;;;;6.65;5.97;;;;;;;;;;2064529;28;20650;-61
2022/01/24 02:04:24;;;;;;;7.28;6.57;;;;;;;;;;2070707;28;20248;-61
2022/01/24 02:05:24;;;;;;;7.35;6.75;;;;;;;;;;2071718;28;20177;-63
2022/01/24 02:06:24;;;;;;;7.30;6.70;;;;;;;;;;2066816;28;20178;-62
2022/01/24 02:07:25;;;;;;;7.95;7.07;;;;;;;;;;2069552;28;20204;-62
2022/01/24 02:08:30;;;;;;;7.57;6.77;;;;;;;;;;2067753;28;20222;-61
2022/01/24 02:09:32;;;;;;;7.80;7.10;;;;;;;;;;2069999;28;20192;-63
2022/01/24 02:10:34;;;;;;;7.07;6.45;;;;;;;;;;2066587;28;20181;-62
2022/01/24 02:11:35;;;;;;;7.68;6.90;;;;;;;;;;2069215;28;20185;-62
2022/01/24 02:12:35;;;;;;;8.50;6.72;;;;;;;;;;2071477;28;20169;-62
2022/01/24 02:13:36;;;;;;;7.43;6.72;;;;;;;;;;2064134;28;20181;-61
2022/01/24 02:14:41;;;;;;;7.97;7.17;;;;;;;;;;2071294;28;20382;-64
2022/01/24 02:15:55;;;;;;;7.35;6.47;;;;;;;;;;2059844;28;20179;-58
2022/01/24 02:17:02;;;;;;;7.27;6.63;;;;;;;;;;2065454;28;20180;-61
2022/01/24 02:18:11;;;;;;;8.00;7.20;;;;;;;;;;2068923;28;20181;-61
2022/01/24 02:19:26;;;;;;;7.90;7.20;;;;;;;;;;2066510;28;20192;-61
2022/01/24 02:21:05;;;;;;;7.88;7.07;;;;;;;;;;2066110;28;20235;-62
2022/01/24 02:23:30;;;;;;;8.82;7.50;;;;;;;;;;2063706;28;20235;-59
2022/01/24 02:24:39;;;;;;;7.68;6.97;;;;;;;;;;2066612;28;20189;-60
2022/01/24 02:25:40;;;;;;;8.43;7.63;;;;;;;;;;2065202;28;20162;-58
2022/01/24 02:26:41;;;;;;;7.60;6.80;;;;;;;;;;2063826;28;20659;-61
2022/01/24 02:27:45;;;;;;;8.88;7.93;;;;;;;;;;2064143;28;20170;-62
2022/01/24 02:29:03;;;;;;;7.82;7.10;;;;;;;;;;2064176;28;20170;-62
2022/01/24 02:31:38;;;;;;;7.93;7.17;;;;;;;;;;2063969;28;20303;-61
2022/01/24 02:32:39;;;;;;;7.72;7.03;;;;;;;;;;2063181;28;20175;-62
2022/01/24 02:33:44;;;;;;;7.38;6.68;;;;;;;;;;2067967;28;20176;-63
2022/01/24 02:34:47;;;;;;;7.72;7.03;;;;;;;;;;2066120;28;20646;-61
2022/01/24 02:35:47;;;;;;;6.70;6.03;;;;;;;;;;2058002;28;20625;-62
2022/01/24 02:36:48;;;;;;;7.40;6.70;;;;;;;;;;2073493;28;20173;-63
2022/01/24 02:37:48;;;;;;;8.02;7.32;;;;;;;;;;2059938;28;20174;-62
2022/01/24 02:40:13;;;;;;;7.80;7.07;;;;;;;;;;2064382;28;20228;-61
2022/01/24 02:49:07;;;;;;;4.50;4.20;;;;;;;;;;2066832;28;20173;-61
2022/01/24 02:50:08;;;;;;;5.03;4.73;;;;;;;;;;2065411;28;20216;-61
2022/01/24 02:52:10;;;;;;;4.93;4.53;;;;;;;;;;2068485;28;20260;-63
2022/01/24 02:53:10;;;;;;;5.03;4.70;;;;;;;;;;2067407;28;20177;-61
2022/01/24 02:54:17;;;;;;;5.70;5.22;;;;;;;;;;2064011;28;20208;-64
2022/01/24 02:55:18;;;;;;;5.27;4.87;;;;;;;;;;2059350;28;20174;-61
2022/01/24 02:56:18;;;;;;;5.13;4.80;;;;;;;;;;2058281;28;20559;-61
2022/01/24 02:57:20;;;;;;;5.43;5.03;;;;;;;;;;2067413;28;20221;-62
2022/01/24 02:58:21;;;;;;;5.57;5.07;;;;;;;;;;2064467;28;20600;-61
2022/01/24 02:59:21;;;;;;;5.10;4.68;;;;;;;;;;2059328;28;20213;-62
2022/01/24 03:00:22;;;;;;;5.93;5.10;;;;;;;;;;2066624;28;20653;-61
2022/01/24 03:01:22;;;;;;;5.60;5.10;;;;;;;;;;2068264;28;20180;-62
2022/01/24 03:02:22;;;;;;;5.53;5.13;;;;;;;;;;2064912;28;20231;-61
2022/01/24 03:03:23;;;;;;;5.70;4.78;;;;;;;;;;2069530;28;20208;-63
2022/01/24 03:04:23;;;;;;;5.50;5.03;;;;;;;;;;2072849;28;20212;-61
2022/01/24 03:05:23;;;;;;;5.63;5.13;;;;;;;;;;2069392;28;20224;-63
2022/01/24 03:06:23;;;;;;;5.40;4.90;;;;;;;;;;2067595;28;20705;-61
2022/01/24 03:07:25;;;;;;;5.40;4.90;;;;;;;;;;2067366;28;20660;-61
2022/01/24 03:08:25;;;;;;;5.93;5.43;;;;;;;;;;2061389;28;20861;-63
2022/01/24 03:09:25;;;;;;;5.93;5.47;;;;;;;;;;2062794;28;20194;-62
2022/01/24 03:10:37;;;;;;;5.38;4.88;;;;;;;;;;2065680;28;20187;-62
2022/01/24 03:13:08;;;;;;;4.73;4.33;;;;;;;;;;2058802;28;20185;-63
2022/01/24 03:14:09;;;;;;;5.88;5.38;;;;;;;;;;2068345;28;20183;-61
2022/01/24 03:15:09;;;;;;;5.05;4.65;;;;;;;;;;2067521;28;20192;-63
2022/01/24 03:16:10;;;;;;;5.13;4.73;;;;;;;;;;2067493;28;20284;-61
2022/01/24 03:17:10;;;;;;;5.90;5.40;;;;;;;;;;2062803;28;20173;-61
2022/01/24 03:18:10;;;;;;;5.47;5.07;;;;;;;;;;2072562;28;20181;-63
2022/01/24 03:19:11;;;;;;;5.50;5.00;;;;;;;;;;2059550;28;20190;-62
2022/01/24 03:20:11;;;;;;;5.20;4.70;;;;;;;;;;2060448;28;20235;-62
2022/01/24 03:21:11;;;;;;;6.00;5.50;;;;;;;;;;2057699;28;20208;-61
2022/01/24 03:22:12;;;;;;;6.67;6.07;;;;;;;;;;2057426;28;20209;-62
2022/01/24 03:23:13;;;;;;;5.10;4.70;;;;;;;;;;2057445;28;20205;-62
2022/01/24 03:24:13;;;;;;;6.10;5.50;;;;;;;;;;2056716;28;20309;-63
2022/01/24 03:25:14;;;;;;;5.72;5.22;;;;;;;;;;2056638;28;20171;-61
2022/01/24 03:26:14;;;;;;;5.30;4.90;;;;;;;;;;2057343;28;20813;-62
2022/01/24 03:27:15;;;;;;;5.30;4.80;;;;;;;;;;2056351;28;20650;-62
2022/01/24 03:28:15;;;;;;;5.40;4.90;;;;;;;;;;2062837;28;20227;-62
2022/01/24 03:29:16;;;;;;;5.00;4.50;;;;;;;;;;2065454;28;20556;-61
2022/01/24 03:30:16;;;;;;;5.45;5.05;;;;;;;;;;2065171;28;20192;-62
2022/01/24 03:31:16;;;;;;;5.25;4.85;;;;;;;;;;2059025;28;20174;-62
2022/01/24 03:32:17;;;;;;;5.57;4.97;;;;;;;;;;2057187;28;20185;-62
2022/01/24 03:33:17;;;;;;;5.07;4.68;;;;;;;;;;2057541;28;20178;-61
2022/01/24 03:34:18;;;;;;;4.90;4.50;;;;;;;;;;2059789;28;20292;-61
2022/01/24 03:35:18;;;;;;;5.40;4.90;;;;;;;;;;2065235;28;20174;-61
2022/01/24 03:36:18;;;;;;;5.35;4.95;;;;;;;;;;2058289;28;20184;-62
2022/01/24 03:37:18;;;;;;;5.37;4.90;;;;;;;;;;2065801;28;20212;-62
2022/01/24 03:38:19;;;;;;;5.47;5.07;;;;;;;;;;2059189;28;20186;-62
2022/01/24 03:39:19;;;;;;;4.83;4.43;;;;;;;;;;2056637;28;20225;-61
2022/01/24 03:40:19;;;;;;;4.65;4.35;;;;;;;;;;2066186;28;20196;-63
2022/01/24 03:41:19;;;;;;;5.18;4.78;;;;;;;;;;2072492;28;20222;-63
2022/01/24 03:42:20;;;;;;;4.70;4.32;;;;;;;;;;2069262;28;20642;-62
2022/01/24 03:43:20;;;;;;;4.75;4.45;;;;;;;;;;2071924;28;20161;-61
2022/01/24 03:44:21;;;;;;;4.93;4.57;;;;;;;;;;2069303;28;20251;-61
2022/01/24 03:45:36;;;;;;;4.72;4.32;;;;;;;;;;2068251;28;20708;-61
2022/01/24 03:46:48;;;;;;;5.15;4.65;;;;;;;;;;2061309;28;20169;-62
2022/01/24 03:48:10;;;;;;;4.72;4.32;;;;;;;;;;2056781;28;20174;-60
2022/01/24 03:49:44;;;;;;;4.70;4.40;;;;;;;;;;2064943;28;20212;-62
2022/01/24 03:50:31;;;;;;;5.07;4.70;;;;;;;;;;2060799;28;20195;-62
2022/01/24 03:51:31;;;;;;;5.17;4.67;;;;;;;;;;2062667;28;20188;-61
2022/01/24 03:52:32;;;;;;;4.40;4.10;;;;;;;;;;2063937;28;20759;-63
2022/01/24 03:53:32;;;;;;;5.07;4.68;;;;;;;;;;2064268;28;20203;-63
2022/01/24 03:54:32;;;;;;;4.63;4.33;;;;;;;;;;2064093;28;20251;-63
2022/01/24 03:55:33;;;;;;;3.70;3.50;;;;;;;;;;2060139;28;20186;-62
2022/01/24 03:56:33;;;;;;;4.50;4.20;;;;;;;;;;2062980;28;20957;-62
2022/01/24 03:57:34;;;;;;;4.25;3.95;;;;;;;;;;2061138;28;20210;-62
2022/01/24 03:58:34;;;;;;;5.07;4.75;;;;;;;;;;2063546;28;20281;-60
2022/01/24 03:59:35;;;;;;;4.88;4.57;;;;;;;;;;2064743;28;20212;-62
2022/01/24 04:00:35;;;;;;;4.55;4.25;;;;;;;;;;2063783;28;20626;-61
2022/01/24 04:01:35;;;;;;;4.10;3.90;;;;;;;;;;2058802;28;20201;-62
2022/01/24 04:02:35;;;;;;;4.93;4.45;;;;;;;;;;2070282;28;20173;-64
2022/01/24 04:03:37;;;;;;;4.20;3.90;;;;;;;;;;2067171;28;20281;-63
2022/01/24 04:04:37;;;;;;;4.10;3.80;;;;;;;;;;2064605;28;20193;-62
2022/01/24 04:05:37;;;;;;;4.50;4.20;;;;;;;;;;2060741;28;20174;-62
2022/01/24 04:06:38;;;;;;;4.93;4.53;;;;;;;;;;2064420;28;20634;-63
2022/01/24 04:07:38;;;;;;;5.27;4.50;;;;;;;;;;2063672;28;20173;-63
2022/01/24 04:08:38;;;;;;;4.70;4.40;;;;;;;;;;2065055;28;20169;-64
2022/01/24 04:09:41;;;;;;;4.70;4.30;;;;;;;;;;2065141;28;20720;-63
2022/01/24 04:10:43;;;;;;;5.30;4.80;;;;;;;;;;2070076;28;20180;-62
2022/01/24 04:11:43;;;;;;;4.88;4.57;;;;;;;;;;2064617;28;20178;-62
2022/01/24 04:12:44;;;;;;;4.60;4.30;;;;;;;;;;2069937;28;20184;-61
2022/01/24 04:13:45;;;;;;;4.88;4.47;;;;;;;;;;2056625;28;20211;-62
2022/01/24 04:22:02;;;;;;;4.70;4.40;;;;;;;;;;2060098;28;20650;-62
2022/01/24 04:23:02;;;;;;;5.05;4.65;;;;;;;;;;2064691;28;20193;-62
2022/01/24 04:25:06;;;;;;;5.03;4.73;;;;;;;;;;2067106;28;20189;-62
2022/01/24 04:26:06;;;;;;;5.05;4.63;;;;;;;;;;2070181;28;20165;-63
2022/01/24 04:27:06;;;;;;;5.45;4.95;;;;;;;;;;2066256;28;20257;-59
2022/01/24 04:28:07;;;;;;;5.10;4.70;;;;;;;;;;2069924;28;20190;-61
2022/01/24 04:29:07;;;;;;;5.63;5.18;;;;;;;;;;2061538;28;20169;-63
2022/01/24 04:30:08;;;;;;;5.25;4.75;;;;;;;;;;2065126;28;20196;-62
2022/01/24 04:31:08;;;;;;;5.20;4.80;;;;;;;;;;2058621;28;20201;-63
2022/01/24 04:32:09;;;;;;;5.32;4.82;;;;;;;;;;2064606;28;20176;-62
2022/01/24 04:33:09;;;;;;;4.60;4.30;;;;;;;;;;2066070;28;20192;-63
2022/01/24 04:34:10;;;;;;;4.60;4.20;;;;;;;;;;2064031;28;20175;-65
2022/01/24 04:35:11;;;;;;;5.18;4.85;;;;;;;;;;2062924;28;20162;-62
2022/01/24 04:36:12;;;;;;;5.00;4.60;;;;;;;;;;2065884;28;20185;-62
2022/01/24 04:37:12;;;;;;;5.15;4.75;;;;;;;;;;2065936;28;20617;-62
2022/01/24 04:38:12;;;;;;;5.15;4.75;;;;;;;;;;2065748;28;20652;-61
2022/01/24 04:39:13;;;;;;;5.60;5.20;;;;;;;;;;2069877;28;20836;-64
2022/01/24 04:40:13;;;;;;;5.70;5.20;;;;;;;;;;2070278;28;20197;-62
2022/01/24 04:41:27;;;;;;;4.68;4.28;;;;;;;;;;2065329;28;20181;-62
2022/01/24 04:42:39;;;;;;;5.30;4.90;;;;;;;;;;2062920;28;20178;-63
2022/01/24 04:45:07;;;;;;;4.85;4.47;;;;;;;;;;2065961;28;20274;-63
2022/01/24 04:46:16;;;;;;;4.70;4.40;;;;;;;;;;2071025;28;20158;-62
2022/01/24 04:50:28;;;;;;;4.60;4.30;;;;;;;;;;2065205;28;20181;-61
2022/01/24 04:51:34;;;;;;;5.20;4.68;;;;;;;;;;2062762;28;20173;-62
2022/01/24 04:52:45;;;;;;;4.70;4.40;;;;;;;;;;2064309;28;20173;-63
2022/01/24 04:54:03;;;;;;;5.75;5.25;;;;;;;;;;2066265;28;20158;-62
2022/01/24 04:55:04;;;;;;;5.47;5.07;;;;;;;;;;2068444;28;20217;-63
2022/01/24 04:56:04;;;;;;;5.28;4.88;;;;;;;;;;2071312;28;20244;-66
2022/01/24 04:57:05;;;;;;;5.57;5.17;;;;;;;;;;2066906;28;20256;-61
2022/01/24 04:58:05;;;;;;;6.20;5.63;;;;;;;;;;2070232;28;20269;-63
2022/01/24 04:59:06;;;;;;;5.80;5.30;;;;;;;;;;2066124;28;20208;-63
2022/01/24 05:00:08;;;;;;;5.38;4.88;;;;;;;;;;2070219;28;20178;-62
2022/01/24 05:01:10;;;;;;;6.18;5.60;;;;;;;;;;2062864;28;20193;-63
2022/01/24 05:02:11;;;;;;;6.27;5.73;;;;;;;;;;2066141;28;20178;-61
2022/01/24 05:03:11;;;;;;;6.55;6.05;;;;;;;;;;2060506;28;20201;-62
2022/01/24 05:04:11;;;;;;;6.25;5.75;;;;;;;;;;2058270;28;20182;-61
2022/01/24 05:05:17;;;;;;;5.88;5.38;;;;;;;;;;2065068;28;20252;-63
2022/01/24 05:06:17;;;;;;;6.18;5.72;;;;;;;;;;2069221;28;20170;-66
2022/01/24 05:07:17;;;;;;;6.18;5.68;;;;;;;;;;2062409;28;20175;-62
2022/01/24 05:08:18;;;;;;;5.60;5.10;;;;;;;;;;2060061;28;20699;-58
2022/01/24 05:09:19;;;;;;;5.72;5.22;;;;;;;;;;2070025;28;20185;-62
2022/01/24 05:10:30;;;;;;;5.82;5.32;;;;;;;;;;2072358;28;20670;-60
2022/01/24 05:11:40;;;;;;;5.30;4.90;;;;;;;;;;2067515;28;20224;-60
2022/01/24 05:24:14;;;;;;;5.97;5.47;;;;;;;;;;2058576;28;20175;-59
2022/01/24 05:25:14;;;;;;;5.80;5.30;;;;;;;;;;2059724;28;20190;-58
2022/01/24 05:26:15;;;;;;;5.43;5.03;;;;;;;;;;2060626;28;20217;-61
2022/01/24 05:27:16;;;;;;;6.25;5.75;;;;;;;;;;2063394;28;20166;-61
2022/01/24 05:28:16;;;;;;;5.60;5.20;;;;;;;;;;2066058;28;20197;-58
2022/01/24 05:29:16;;;;;;;6.03;5.43;;;;;;;;;;2066243;28;20183;-62
2022/01/24 05:30:17;;;;;;;6.22;5.75;;;;;;;;;;2067722;28;20231;-58
2022/01/24 05:31:17;;;;;;;6.20;5.60;;;;;;;;;;2066604;28;20173;-57
2022/01/24 05:32:17;;;;;;;5.18;4.85;;;;;;;;;;2064033;28;20187;-59
2022/01/24 05:33:18;;;;;;;6.60;6.00;;;;;;;;;;2064229;28;20170;-59
2022/01/24 05:34:18;;;;;;;5.90;5.50;;;;;;;;;;2064118;28;20188;-58
2022/01/24 05:35:18;;;;;;;5.95;5.45;;;;;;;;;;2063575;28;20198;-59
2022/01/24 05:36:19;;;;;;;6.40;5.90;;;;;;;;;;2064056;28;20206;-58
2022/01/24 05:37:19;;;;;;;6.07;5.47;;;;;;;;;;2063948;28;20245;-58
2022/01/24 05:38:21;;;;;;;6.20;5.70;;;;;;;;;;2060030;28;20178;-62
2022/01/24 05:39:22;;;;;;;6.05;5.45;;;;;;;;;;2060459;28;20207;-57
2022/01/24 05:40:22;;;;;;;6.28;5.78;;;;;;;;;;2061744;28;20167;-60
2022/01/24 05:41:23;;;;;;;7.10;6.18;;;;;;;;;;2062638;28;20190;-60
2022/01/24 05:42:23;;;;;;;6.00;5.60;;;;;;;;;;2051761;28;20210;-60
2022/01/24 05:43:23;;;;;;;6.10;5.57;;;;;;;;;;2059290;28;20792;-59
2022/01/24 05:44:23;;;;;;;6.53;5.72;;;;;;;;;;2062302;28;20170;-57
2022/01/24 05:45:24;;;;;;;6.00;5.50;;;;;;;;;;2063213;28;20171;-59
2022/01/24 05:46:24;;;;;;;6.50;5.95;;;;;;;;;;2062497;28;20162;-58
2022/01/24 05:47:24;;;;;;;6.13;5.65;;;;;;;;;;2060431;28;20429;-58
2022/01/24 05:48:25;;;;;;;6.40;5.97;;;;;;;;;;2054525;28;20202;-58
2022/01/24 05:49:25;;;;;;;5.72;5.13;;;;;;;;;;2054771;28;20643;-60
2022/01/24 05:50:25;;;;;;;6.13;5.63;;;;;;;;;;2057659;28;20431;-57
2022/01/24 05:51:26;;;;;;;6.53;6.03;;;;;;;;;;2060246;28;20178;-59
2022/01/24 05:52:26;;;;;;;6.30;5.80;;;;;;;;;;2055280;28;20186;-59
2022/01/24 05:53:27;;;;;;;5.90;5.20;;;;;;;;;;2058177;28;20224;-60
2022/01/24 05:54:30;;;;;;;6.32;5.82;;;;;;;;;;2059483;28;20193;-59
2022/01/24 05:55:30;;;;;;;6.53;5.97;;;;;;;;;;2059419;28;20674;-59
2022/01/24 05:56:31;;;;;;;6.40;5.90;;;;;;;;;;2059594;28;20279;-60
2022/01/24 05:57:31;;;;;;;6.63;6.13;;;;;;;;;;2065125;28;20304;-60
2022/01/24 05:58:31;;;;;;;6.85;6.18;;;;;;;;;;2067668;28;20192;-61
2022/01/24 05:59:32;;;;;;;6.38;5.88;;;;;;;;;;2069689;28;20197;-61
2022/01/24 06:00:33;;;;;;;6.15;5.75;;;;;;;;;;2057616;28;20167;-61
2022/01/24 06:01:33;;;;;;;5.82;5.32;;;;;;;;;;2064679;28;20186;-61
2022/01/24 06:02:33;;;;;;;6.72;6.22;;;;;;;;;;2061158;28;20162;-59
2022/01/24 06:03:35;;;;;;;7.20;6.53;;;;;;;;;;2069215;28;20177;-62
2022/01/24 06:04:36;;;;;;;6.97;6.38;;;;;;;;;;2060670;28;20174;-60
2022/01/24 06:05:36;;;;;;;7.23;6.47;;;;;;;;;;2060115;28;20179;-61
2022/01/24 06:06:36;;;;;;;6.72;6.15;;;;;;;;;;2061269;28;20170;-60
2022/01/24 06:07:37;;;;;;;6.75;6.15;;;;;;;;;;2061011;28;20224;-59
2022/01/24 06:08:37;;;;;;;6.93;6.32;;;;;;;;;;2068762;28;20557;-60
2022/01/24 06:09:38;;;;;;;7.18;6.63;;;;;;;;;;2066954;28;20181;-60
2022/01/24 06:10:39;;;;;;;7.85;7.05;;;;;;;;;;2051966;28;20230;-59
2022/01/24 06:11:39;;;;;;;6.78;6.25;;;;;;;;;;2052600;28;20190;-58
2022/01/24 06:12:40;;;;;;;6.78;6.18;;;;;;;;;;2061550;28;20214;-60
2022/01/24 06:13:41;;;;;;;6.40;5.80;;;;;;;;;;2052000;28;20229;-57
2022/01/24 06:14:42;;;;;;;6.75;6.15;;;;;;;;;;2044831;28;20183;-59
2022/01/24 06:15:43;;;;;;;6.53;6.00;;;;;;;;;;2050606;28;20171;-61
2022/01/24 06:16:43;;;;;;;6.53;5.93;;;;;;;;;;2052409;28;20195;-60
2022/01/24 06:17:43;;;;;;;6.43;5.80;;;;;;;;;;2058955;28;20166;-61
2022/01/24 06:18:44;;;;;;;6.75;6.15;;;;;;;;;;2064154;28;20186;-58
2022/01/24 06:19:44;;;;;;;6.63;6.13;;;;;;;;;;2059915;28;20233;-58
2022/01/24 06:20:45;;;;;;;7.10;6.40;;;;;;;;;;2060791;28;20182;-59
2022/01/24 06:21:45;;;;;;;6.82;6.28;;;;;;;;;;2063042;28;20173;-62
2022/01/24 06:22:46;;;;;;;6.95;6.45;;;;;;;;;;2059523;28;20664;-58
2022/01/24 06:23:46;;;;;;;6.35;5.82;;;;;;;;;;2056114;28;20187;-58
2022/01/24 06:24:47;;;;;;;6.25;5.78;;;;;;;;;;2057254;28;20187;-59
2022/01/24 06:25:47;;;;;;;6.60;6.13;;;;;;;;;;2061347;28;20194;-60
2022/01/24 06:26:47;;;;;;;6.88;6.15;;;;;;;;;;2056667;28;20183;-60
2022/01/24 06:27:47;;;;;;;6.60;6.10;;;;;;;;;;2068569;28;20193;-60
2022/01/24 06:28:48;;;;;;;6.85;6.25;;;;;;;;;;2064897;28;20170;-59
2022/01/24 06:29:48;;;;;;;7.63;6.85;;;;;;;;;;2068864;28;20182;-59
2022/01/24 06:30:48;;;;;;;7.28;6.57;;;;;;;;;;2064093;28;20541;-60
2022/01/24 06:31:48;;;;;;;7.22;6.53;;;;;;;;;;2068131;28;20174;-62
2022/01/24 06:32:49;;;;;;;7.40;6.68;;;;;;;;;;2056151;28;20187;-58
2022/01/24 06:33:49;;;;;;;6.28;5.78;;;;;;;;;;2067470;28;20677;-61
2022/01/24 06:34:49;;;;;;;6.85;6.15;;;;;;;;;;2059992;28;20625;-59
2022/01/24 06:35:50;;;;;;;6.75;6.15;;;;;;;;;;2057306;28;20190;-59
2022/01/24 06:36:50;;;;;;;7.00;6.45;;;;;;;;;;2052449;28;20179;-60
2022/01/24 06:37:50;;;;;;;6.80;6.30;;;;;;;;;;2058165;28;20229;-60
2022/01/24 06:38:50;;;;;;;7.23;6.63;;;;;;;;;;2053246;28;20183;-61
2022/01/24 06:39:51;;;;;;;6.82;6.22;;;;;;;;;;2066530;28;20174;-60
2022/01/24 06:40:52;;;;;;;7.65;7.03;;;;;;;;;;2053427;28;20202;-60
2022/01/24 06:42:07;;;;;;;9.05;8.32;;;;;;;;;;2065905;28;20184;-60
2022/01/24 06:43:08;;;;;;;7.68;7.07;;;;;;;;;;2057374;28;20166;-60
2022/01/24 06:44:08;;;;;;;8.85;8.05;;;;;;;;;;2060952;28;20187;-60
2022/01/24 06:45:09;;;;;;;8.05;7.35;;;;;;;;;;2058498;28;20221;-60
2022/01/24 06:46:09;;;;;;;8.10;7.40;;;;;;;;;;2067326;28;20308;-59
2022/01/24 06:47:10;;;;;;;7.85;7.15;;;;;;;;;;2067116;28;20195;-59
2022/01/24 06:48:10;;;;;;;7.80;7.10;;;;;;;;;;2066139;28;20608;-61
2022/01/24 06:49:10;;;;;;;8.30;6.70;;;;;;;;;;2063833;28;20166;-60
2022/01/24 06:50:11;;;;;;;7.47;6.85;;;;;;;;;;2061989;28;20177;-60
2022/01/24 06:51:11;;;;;;;7.00;6.40;;;;;;;;;;2063174;28;20182;-59
2022/01/24 06:52:13;;;;;;;7.28;6.68;;;;;;;;;;2054198;28;20217;-60
2022/01/24 06:53:14;;;;;;;7.28;6.60;;;;;;;;;;2058280;28;20177;-60
2022/01/24 06:54:14;;;;;;;8.55;6.60;;;;;;;;;;2056521;28;20187;-59
2022/01/24 06:55:14;;;;;;;8.02;7.38;;;;;;;;;;2054669;28;20221;-59
2022/01/24 06:56:15;;;;;;;7.83;7.23;;;;;;;;;;2057282;28;20633;-60
2022/01/24 06:57:15;;;;;;;7.40;6.68;;;;;;;;;;2057567;28;20174;-59
2022/01/24 06:58:16;;;;;;;8.07;7.30;;;;;;;;;;2061556;28;20811;-60
2022/01/24 06:59:16;;;;;;;7.85;7.15;;;;;;;;;;2061105;28;20636;-61
2022/01/24 07:00:16;;;;;;;9.48;7.43;;;;;;;;;;2054228;28;20539;-58
2022/01/24 07:01:17;;;;;;;7.75;6.97;;;;;;;;;;2057143;28;20246;-59
2022/01/24 07:02:17;;;;;;;9.40;7.53;;;;;;;;;;2062737;28;20257;-58
2022/01/24 07:03:17;;;;;;;8.33;7.57;;;;;;;;;;2060296;28;20257;-60
2022/01/24 07:04:18;;;;;;;7.93;7.20;;;;;;;;;;2054640;28;20659;-59
2022/01/24 07:05:18;;;;;;;7.60;6.75;;;;;;;;;;2057506;28;20205;-60
2022/01/24 07:06:18;;;;;;;9.43;7.05;;;;;;;;;;2062229;28;20329;-58
2022/01/24 07:07:19;;;;;;;8.43;7.68;;;;;;;;;;2062043;28;20182;-59
2022/01/24 07:08:19;;;;;;;12.10;7.70;;;;;;;;;;2057065;28;20176;-59
2022/01/24 07:09:19;;;;;;;8.38;7.68;;;;;;;;;;2057761;28;20181;-60
2022/01/24 07:10:20;;;;;;;8.15;7.45;;;;;;;;;;2062488;28;20685;-59
2022/01/24 07:11:20;;;;;;;8.13;7.43;;;;;;;;;;2059586;28;20193;-59
2022/01/24 07:12:22;;;;;;;8.83;8.07;;;;;;;;;;2056403;28;20206;-60
2022/01/24 07:13:22;;;;;;;8.38;7.53;;;;;;;;;;2056962;28;20174;-60
2022/01/24 07:14:22;;;;;;;9.68;7.90;;;;;;;;;;2052236;28;20187;-59
2022/01/24 07:15:31;;;;;;;8.15;7.45;;;;;;;;;;2058786;28;20282;-60
2022/01/24 07:16:48;;;;;;;8.63;7.82;;;;;;;;;;2065631;28;20253;-58
2022/01/24 07:19:04;;;;;;;8.73;7.93;;;;;;;;;;2063171;28;20161;-61
2022/01/24 07:20:04;;;;;;;9.07;8.27;;;;;;;;;;2057095;28;20193;-61
2022/01/24 07:21:06;;;;;;;8.63;7.78;;;;;;;;;;2059694;28;20188;-61
2022/01/24 07:22:07;;;;;;;9.23;8.43;;;;;;;;;;2064157;28;20188;-60
2022/01/24 07:23:07;;;;;;;9.10;8.10;;;;;;;;;;2062790;28;20201;-60
2022/01/24 07:24:07;;;;;;;9.00;8.15;;;;;;;;;;2059429;28;20197;-59
2022/01/24 07:25:08;;;;;;;8.35;7.55;;;;;;;;;;2060078;28;20714;-60
2022/01/24 07:26:08;;;;;;;8.57;7.78;;;;;;;;;;2056706;28;20233;-62
2022/01/24 07:27:08;;;;;;;7.95;7.22;;;;;;;;;;2057908;28;20268;-59
2022/01/24 07:28:09;;;;;;;9.20;8.30;;;;;;;;;;2060697;28;20174;-59
2022/01/24 07:29:09;;;;;;;8.38;7.50;;;;;;;;;;2058084;28;20181;-59
2022/01/24 07:30:10;;;;;;;8.70;7.90;;;;;;;;;;2062100;28;20185;-60
2022/01/24 07:31:11;;;;;;;10.60;8.85;;;;;;;;;;2065533;28;20166;-59
2022/01/24 07:32:13;;;;;;;9.03;7.87;;;;;;;;;;2060455;28;20177;-60
2022/01/24 07:33:16;;;;;;;13.18;9.43;;;;;;;;;;2060399;28;20185;-60
2022/01/24 07:34:17;;;;;;;11.18;8.55;;;;;;;;;;2061378;28;20181;-60
2022/01/24 07:35:17;;;;;;;10.18;8.20;;;;;;;;;;2062434;28;20229;-57
2022/01/24 07:36:18;;;;;;;9.18;8.27;;;;;;;;;;2061943;28;20210;-56
2022/01/24 07:37:18;;;;;;;9.77;8.88;;;;;;;;;;2060654;28;20202;-58
2022/01/24 07:38:18;;;;;;;10.13;9.17;;;;;;;;;;2056626;28;20170;-58